Bedford, Ohio
Current Conditions -  °F | °C
As of 9:26 PM on Thursday 20 Nov 2014 (Local Time) from KBKL Reporting Station
Light Snow Light Snow  
Wind Chill:   Ceiling: 1000
Heat Index: 25°   Visibility: 5mi
Dew Point: 20°   Wind: 25mph
Humidity: 81%   Direction: 280°W
Pressure: 30.1"   Gusts: 40mph
Location:  41.4°N, 81.54°W
Report Text: KBKL 210226Z 28022G35KT 5SM -SN BKN010 OVC023 M04/M07 A3010 RMK AO2 PK WND 27035/0220 P0000 T10391067
Loading
Personal Weather Stations






























Interactive Weather Map New forecast layout! Learn more

10-Day Weather Forecast

Advertisements
Track Severe Weather on mobile